createdAt,value
2023-02-16T00:02:14.789Z,106.50
2023-02-16T00:04:44.406Z,112.40
2023-02-16T00:07:13.732Z,100.05
2023-02-16T00:09:44.797Z,98.22
2023-02-16T00:12:39.198Z,104.20
2023-02-16T00:15:19.510Z,105.55
2023-02-16T00:17:48.978Z,105.35
2023-02-16T00:20:19.386Z,113.03
2023-02-16T00:22:48.706Z,101.85
2023-02-16T00:25:19.910Z,103.55
2023-02-16T00:27:49.332Z,105.63
2023-02-16T00:30:21.308Z,104.45
2023-02-16T00:32:50.820Z,109.38
2023-02-16T00:35:22.919Z,108.68
2023-02-16T00:37:52.294Z,107.28
2023-02-16T00:40:23.888Z,107.80
2023-02-16T00:42:53.155Z,102.15
2023-02-16T00:45:24.852Z,104.68
2023-02-16T00:47:55.735Z,96.30
2023-02-16T00:50:28.760Z,114.82
2023-02-16T00:52:59.646Z,101.38
2023-02-16T00:55:34.136Z,103.00
2023-02-16T00:58:08.724Z,105.03
2023-02-16T01:00:41.634Z,105.07
2023-02-16T01:03:14.681Z,102.10
2023-02-16T01:05:44.660Z,101.43
2023-02-16T01:08:33.578Z,111.10
2023-02-16T01:11:10.529Z,103.30
2023-02-16T01:13:44.017Z,102.45
2023-02-16T01:16:16.012Z,111.60
2023-02-16T01:18:46.014Z,112.28
2023-02-16T01:21:15.792Z,109.57
2023-02-16T01:23:45.134Z,108.82
2023-02-16T01:26:18.006Z,114.85
2023-02-16T01:28:47.485Z,95.32
2023-02-16T01:31:18.043Z,102.22
2023-02-16T01:33:47.447Z,107.28
2023-02-16T01:36:25.058Z,105.70
2023-02-16T01:38:54.773Z,106.82
2023-02-16T01:41:39.297Z,101.77
2023-02-16T01:44:14.710Z,101.22
2023-02-16T01:46:50.735Z,99.20
2023-02-16T01:49:22.504Z,103.80
2023-02-16T01:51:58.522Z,104.15
2023-02-16T01:54:37.555Z,113.18
2023-02-16T01:57:22.674Z,94.97
2023-02-16T02:00:12.000Z,98.28
2023-02-16T02:02:45.553Z,94.82
2023-02-16T02:05:36.024Z,102.63
2023-02-16T02:08:16.659Z,110.47
2023-02-16T02:10:56.232Z,102.65
2023-02-16T02:13:34.679Z,112.10
2023-02-16T02:16:07.612Z,105.60
2023-02-16T02:18:37.466Z,104.47
2023-02-16T02:21:44.814Z,107.60
2023-02-16T02:25:04.196Z,102.18
2023-02-16T02:27:38.690Z,109.22
2023-02-16T02:30:28.900Z,112.93
2023-02-16T02:33:13.590Z,99.25
2023-02-16T02:35:51.317Z,107.63
2023-02-16T02:38:29.225Z,101.68
2023-02-16T02:41:05.942Z,107.15
2023-02-16T02:43:42.610Z,105.32
2023-02-16T02:46:18.964Z,111.60
2023-02-16T02:48:48.605Z,103.00
2023-02-16T02:51:34.098Z,95.88
2023-02-16T02:54:24.234Z,105.25
2023-02-16T02:57:16.855Z,103.65
2023-02-16T03:00:09.009Z,113.75
2023-02-16T03:02:41.618Z,104.72
2023-02-16T03:05:13.078Z,89.57
2023-02-16T03:07:49.140Z,112.03
2023-02-16T03:10:39.741Z,101.35
2023-02-16T03:13:17.474Z,111.90
2023-02-16T03:15:51.318Z,112.97
2023-02-16T03:18:38.467Z,105.63
2023-02-16T03:21:25.314Z,107.75
2023-02-16T03:24:13.797Z,98.47
2023-02-16T03:27:00.606Z,107.93
2023-02-16T03:29:31.138Z,112.50
2023-02-16T03:32:02.402Z,103.43
2023-02-16T03:34:34.276Z,114.15
2023-02-16T03:37:03.643Z,104.20
2023-02-16T03:39:54.314Z,107.10
2023-02-16T03:42:24.750Z,99.30
2023-02-16T03:44:54.700Z,103.25
2023-02-16T03:47:25.418Z,109.70
2023-02-16T03:49:55.116Z,109.28
2023-02-16T03:52:24.393Z,103.43
2023-02-16T03:54:54.122Z,114.80
2023-02-16T03:57:23.388Z,105.78
2023-02-16T03:59:54.816Z,113.22
2023-02-16T04:04:55.049Z,106.03
2023-02-16T04:07:24.302Z,110.25
2023-02-16T04:09:54.066Z,108.32
2023-02-16T04:12:43.238Z,107.00
2023-02-16T04:15:15.395Z,100.55
2023-02-16T04:17:46.567Z,108.28
2023-02-16T04:20:19.005Z,104.70
2023-02-16T04:22:48.979Z,100.85
2023-02-16T04:25:20.286Z,109.75
2023-02-16T04:30:21.922Z,103.88
2023-02-16T04:32:52.935Z,105.72
2023-02-16T04:35:22.948Z,113.00
2023-02-16T04:37:52.197Z,104.68
2023-02-16T04:40:22.179Z,100.38
2023-02-16T04:42:51.422Z,106.45
2023-02-16T04:45:21.705Z,109.47
2023-02-16T04:47:52.496Z,105.00
2023-02-16T04:50:23.018Z,98.95
2023-02-16T04:52:52.620Z,113.20
2023-02-16T04:55:22.345Z,106.90
2023-02-16T04:57:51.571Z,105.60
2023-02-16T05:00:22.189Z,101.00
2023-02-16T05:02:53.397Z,100.65
2023-02-16T05:05:23.173Z,117.32
2023-02-16T05:07:52.953Z,116.22
2023-02-16T05:10:22.750Z,118.63
2023-02-16T05:13:23.807Z,99.80
2023-02-16T05:15:53.511Z,107.00
2023-02-16T05:18:24.385Z,105.50
2023-02-16T05:21:11.691Z,114.45
2023-02-16T05:23:41.162Z,98.68
2023-02-16T05:26:10.886Z,109.15
2023-02-16T05:28:40.163Z,115.35
2023-02-16T05:31:09.901Z,112.65
2023-02-16T05:33:40.735Z,109.43
2023-02-16T05:36:11.068Z,121.45
2023-02-16T05:38:40.355Z,112.53
2023-02-16T05:41:10.257Z,113.07
2023-02-16T05:43:39.592Z,102.35
2023-02-16T05:46:11.096Z,108.47
2023-02-16T05:48:41.876Z,116.60
2023-02-16T05:53:41.315Z,101.47
2023-02-16T05:56:11.864Z,111.93
2023-02-16T05:58:41.829Z,110.18
2023-02-16T06:01:11.535Z,108.00
2023-02-16T06:03:42.341Z,109.13
2023-02-16T06:06:12.544Z,109.82
2023-02-16T06:08:42.177Z,111.28
2023-02-16T06:11:32.736Z,110.90
2023-02-16T06:14:03.646Z,114.70
2023-02-16T06:16:35.160Z,102.88
2023-02-16T06:19:06.449Z,105.88
2023-02-16T06:21:36.999Z,107.10
2023-02-16T06:24:10.005Z,109.97
2023-02-16T06:26:40.088Z,103.95
2023-02-16T06:29:09.809Z,103.18
2023-02-16T06:31:39.939Z,103.55
2023-02-16T06:34:10.796Z,93.80
2023-02-16T06:36:42.646Z,96.65
2023-02-16T06:39:12.114Z,105.80
2023-02-16T06:41:42.137Z,92.65
2023-02-16T06:44:14.254Z,101.43
2023-02-16T06:46:45.453Z,107.07
2023-02-16T06:49:18.376Z,98.28
2023-02-16T06:51:49.282Z,116.93
2023-02-16T06:54:19.105Z,100.15
2023-02-16T06:56:48.984Z,100.90
2023-02-16T06:59:18.603Z,102.57
2023-02-16T07:01:48.339Z,105.70
2023-02-16T07:04:19.072Z,98.30
2023-02-16T07:06:49.439Z,112.63
2023-02-16T07:09:18.729Z,104.05
2023-02-16T07:11:48.836Z,105.63
2023-02-16T07:14:18.188Z,95.30
2023-02-16T07:16:48.146Z,84.82
2023-02-16T07:19:18.906Z,93.43
2023-02-16T07:21:48.507Z,95.50
2023-02-16T07:24:18.321Z,89.63
2023-02-16T07:26:47.930Z,101.13
2023-02-16T07:29:17.254Z,89.88
2023-02-16T07:31:47.074Z,86.55
2023-02-16T07:34:19.657Z,92.97
2023-02-16T07:36:50.535Z,86.30
2023-02-16T07:39:19.862Z,85.72
2023-02-16T07:41:49.514Z,92.65
2023-02-16T07:44:18.794Z,79.18
2023-02-16T07:46:48.466Z,85.50
2023-02-16T07:49:19.406Z,92.82
2023-02-16T07:51:49.039Z,91.30
2023-02-16T07:54:18.386Z,87.63
2023-02-16T07:56:48.498Z,84.70
2023-02-16T07:59:18.169Z,79.95
2023-02-16T08:01:47.828Z,84.03
2023-02-16T08:04:18.853Z,84.63
2023-02-16T08:06:48.952Z,88.68
2023-02-16T08:09:18.704Z,84.60
2023-02-16T08:11:48.424Z,93.00
2023-02-16T08:14:17.857Z,82.38
2023-02-16T08:16:49.062Z,79.07
2023-02-16T08:19:21.815Z,75.53
2023-02-16T08:21:51.796Z,67.95
2023-02-16T08:24:21.571Z,77.60
2023-02-16T08:26:53.348Z,80.10
2023-02-16T08:29:23.462Z,82.55
2023-02-16T08:31:55.721Z,79.15
2023-02-16T08:34:26.969Z,82.93
2023-02-16T08:36:59.430Z,82.25
2023-02-16T08:39:31.588Z,87.90
2023-02-16T08:42:02.529Z,80.00
2023-02-16T08:44:32.277Z,84.85
2023-02-16T08:47:03.013Z,89.97
2023-02-16T08:49:33.934Z,84.40
2023-02-16T08:52:04.505Z,86.25
2023-02-16T08:54:33.954Z,73.70
2023-02-16T08:57:04.518Z,77.15
2023-02-16T08:59:34.787Z,84.15
2023-02-16T09:02:04.951Z,79.93
2023-02-16T09:04:37.028Z,77.60
2023-02-16T09:07:06.637Z,71.10
2023-02-16T09:09:35.984Z,77.40
2023-02-16T09:12:08.338Z,80.57
2023-02-16T09:14:37.931Z,78.55
2023-02-16T09:17:07.569Z,76.80
2023-02-16T09:19:38.383Z,73.95
2023-02-16T09:22:08.749Z,80.55
2023-02-16T09:24:38.077Z,77.65
2023-02-16T09:27:07.735Z,77.70
2023-02-16T09:29:37.011Z,73.68
2023-02-16T09:32:06.814Z,78.65
2023-02-16T09:34:38.775Z,71.95
2023-02-16T09:37:09.214Z,71.63
2023-02-16T09:39:38.743Z,65.88
2023-02-16T09:42:20.176Z,65.57
2023-02-16T09:47:29.574Z,64.55
2023-02-16T09:50:02.199Z,71.22
2023-02-16T09:52:40.665Z,63.80
2023-02-16T09:55:13.479Z,63.83
2023-02-16T09:58:04.516Z,64.65
2023-02-16T10:00:46.196Z,63.15
2023-02-16T10:03:37.460Z,65.47
2023-02-16T10:06:25.184Z,71.88
2023-02-16T10:08:58.880Z,65.05
2023-02-16T10:11:42.315Z,63.60
2023-02-16T10:14:31.045Z,67.18
2023-02-16T10:17:09.504Z,59.70
2023-02-16T10:19:42.958Z,62.45
2023-02-16T10:22:17.653Z,56.75
2023-02-16T10:24:54.383Z,55.83
2023-02-16T10:27:24.368Z,55.75
2023-02-16T10:29:54.835Z,49.53
2023-02-16T10:32:30.864Z,49.92
2023-02-16T10:35:12.022Z,49.45
2023-02-16T10:38:01.940Z,52.42
2023-02-16T10:40:52.640Z,59.03
2023-02-16T10:43:27.083Z,51.58
2023-02-16T10:46:00.585Z,46.83
2023-02-16T10:48:30.320Z,43.17
2023-02-16T10:51:05.030Z,44.43
2023-02-16T10:53:47.092Z,40.22
2023-02-16T10:56:43.235Z,47.97
2023-02-16T10:59:18.030Z,46.50
2023-02-16T11:01:50.115Z,46.67
2023-02-16T11:04:34.082Z,46.38
2023-02-16T11:07:06.719Z,50.08
2023-02-16T11:09:38.057Z,49.30
2023-02-16T11:12:19.035Z,46.80
2023-02-16T11:14:54.089Z,45.70
2023-02-16T11:17:26.490Z,56.50
2023-02-16T11:20:01.827Z,60.03
2023-02-16T11:22:35.982Z,51.33
2023-02-16T11:25:27.709Z,49.95
2023-02-16T11:27:59.558Z,47.88
2023-02-16T11:30:33.405Z,47.30
2023-02-16T11:33:05.145Z,50.20
2023-02-16T11:35:42.559Z,58.10
2023-02-16T11:38:29.391Z,65.38
2023-02-16T11:41:01.292Z,61.30
2023-02-16T11:43:35.141Z,52.20
2023-02-16T11:46:07.127Z,50.28
2023-02-16T11:48:36.982Z,49.75
2023-02-16T11:51:08.261Z,52.75
2023-02-16T11:53:42.426Z,49.00
2023-02-16T11:56:20.759Z,43.90
2023-02-16T11:59:09.397Z,45.30
2023-02-16T12:01:55.024Z,43.58
2023-02-16T12:04:40.433Z,51.38
2023-02-16T12:07:18.111Z,50.75
2023-02-16T12:09:55.661Z,49.90
2023-02-16T12:12:34.774Z,52.35
2023-02-16T12:15:14.712Z,47.53
2023-02-16T12:18:12.169Z,50.65
2023-02-16T12:20:51.426Z,53.38
2023-02-16T12:23:38.559Z,51.88
2023-02-16T12:26:38.626Z,47.85
2023-02-16T12:29:20.923Z,54.22
2023-02-16T12:32:06.206Z,47.67
2023-02-16T12:34:48.285Z,57.65
2023-02-16T12:37:28.018Z,53.90
2023-02-16T12:40:08.463Z,58.83
2023-02-16T12:43:00.320Z,53.05
2023-02-16T12:45:36.884Z,58.80
2023-02-16T12:48:28.727Z,56.63
2023-02-16T12:51:00.185Z,60.28
2023-02-16T12:53:40.181Z,62.80
2023-02-16T12:56:18.089Z,65.72
2023-02-16T12:58:53.701Z,63.88
2023-02-16T13:01:29.883Z,63.78
2023-02-16T13:04:05.120Z,65.95
2023-02-16T13:06:40.494Z,60.15
2023-02-16T13:09:23.939Z,64.32
2023-02-16T13:11:58.040Z,62.40
2023-02-16T13:14:32.020Z,69.32
2023-02-16T13:17:07.017Z,68.38
2023-02-16T13:19:37.501Z,61.25
2023-02-16T13:22:38.340Z,68.63
2023-02-16T13:25:47.171Z,66.53
2023-02-16T13:28:34.900Z,63.80
2023-02-16T13:31:34.125Z,64.38
2023-02-16T13:34:24.184Z,64.57
2023-02-16T13:37:17.839Z,69.72
2023-02-16T13:40:16.061Z,66.32
2023-02-16T13:43:15.405Z,74.75
2023-02-16T13:45:47.707Z,72.40
2023-02-16T13:48:23.597Z,69.93
2023-02-16T13:51:01.517Z,64.55
2023-02-16T13:53:36.558Z,67.95
2023-02-16T13:56:22.520Z,66.20
2023-02-16T13:58:53.319Z,79.53
2023-02-16T14:01:43.367Z,68.93
2023-02-16T14:04:15.564Z,69.63
2023-02-16T14:06:46.572Z,72.07
2023-02-16T14:09:52.214Z,66.03
2023-02-16T14:12:24.490Z,68.32
2023-02-16T14:15:05.943Z,75.13
2023-02-16T14:17:36.892Z,66.20
2023-02-16T14:20:29.172Z,68.30
2023-02-16T14:23:01.368Z,70.18
2023-02-16T14:25:41.718Z,69.18
2023-02-16T14:28:48.211Z,66.65
2023-02-16T14:31:23.239Z,69.63
2023-02-16T14:34:03.880Z,69.38
2023-02-16T14:39:05.150Z,68.72
2023-02-16T14:41:37.094Z,69.38
2023-02-16T14:44:38.839Z,71.25
2023-02-16T14:47:18.387Z,68.00
2023-02-16T14:50:12.934Z,67.82
2023-02-16T14:53:18.708Z,69.22
2023-02-16T14:56:12.945Z,64.03
2023-02-16T14:58:53.528Z,73.85
2023-02-16T15:01:25.294Z,68.15
2023-02-16T15:03:56.674Z,82.70
2023-02-16T15:06:33.753Z,70.10
2023-02-16T15:09:07.720Z,66.53
2023-02-16T15:12:02.871Z,62.88
2023-02-16T15:14:37.095Z,70.85
2023-02-16T15:17:10.468Z,74.13
2023-02-16T15:19:40.369Z,73.05
2023-02-16T15:22:19.449Z,70.40
2023-02-16T15:24:58.203Z,78.95
2023-02-16T15:27:30.479Z,73.70
2023-02-16T15:30:09.684Z,74.07
2023-02-16T15:32:39.183Z,66.00
2023-02-16T15:35:15.081Z,71.85
2023-02-16T15:37:44.387Z,71.88
2023-02-16T15:40:25.607Z,70.85
2023-02-16T15:43:01.874Z,65.45
2023-02-16T15:45:35.595Z,79.03
2023-02-16T15:48:29.608Z,74.28
2023-02-16T15:51:08.010Z,84.40
2023-02-16T15:53:45.247Z,77.57
2023-02-16T15:56:40.099Z,75.22
2023-02-16T15:59:35.545Z,69.93
2023-02-16T16:02:14.945Z,85.10
2023-02-16T16:04:46.010Z,84.43
2023-02-16T16:07:18.522Z,77.97
2023-02-16T16:09:48.551Z,86.72
2023-02-16T16:12:20.950Z,74.28
2023-02-16T16:14:54.758Z,74.50
2023-02-16T16:17:28.304Z,73.30
2023-02-16T16:19:58.354Z,75.85
2023-02-16T16:22:35.855Z,71.18
2023-02-16T16:25:29.275Z,66.75
2023-02-16T16:27:59.089Z,70.22
2023-02-16T16:30:32.137Z,76.25
2023-02-16T16:33:03.300Z,78.22
2023-02-16T16:35:42.082Z,77.20
2023-02-16T16:38:25.668Z,81.43
2023-02-16T16:40:57.279Z,83.20
2023-02-16T16:43:30.700Z,82.68
2023-02-16T16:46:15.749Z,86.07
2023-02-16T16:48:47.753Z,87.80
2023-02-16T16:51:19.025Z,84.05
2023-02-16T16:53:57.611Z,89.07
2023-02-16T16:56:27.117Z,81.00
2023-02-16T16:59:00.116Z,85.43
2023-02-16T17:01:32.132Z,87.22
2023-02-16T17:04:02.427Z,78.25
2023-02-16T17:06:32.705Z,82.95
2023-02-16T17:09:03.456Z,83.20
2023-02-16T17:11:35.585Z,86.65
2023-02-16T17:14:10.877Z,89.70
2023-02-16T17:16:44.678Z,81.88
2023-02-16T17:19:14.816Z,77.75
2023-02-16T17:21:44.495Z,89.88
2023-02-16T17:24:14.367Z,88.23
2023-02-16T17:26:43.950Z,84.65
2023-02-16T17:29:13.889Z,91.45
2023-02-16T17:31:44.733Z,91.13
2023-02-16T17:34:14.846Z,83.80
2023-02-16T17:36:44.459Z,83.82
2023-02-16T17:39:14.210Z,90.95
2023-02-16T17:41:43.886Z,84.35
2023-02-16T17:44:13.992Z,93.03
2023-02-16T17:46:46.326Z,94.65
2023-02-16T17:49:16.505Z,90.82
2023-02-16T17:51:45.917Z,99.50
2023-02-16T17:54:15.569Z,101.18
2023-02-16T17:56:47.204Z,99.15
2023-02-16T17:59:17.810Z,101.97
2023-02-16T18:01:48.521Z,115.88
2023-02-16T18:04:18.235Z,117.50
2023-02-16T18:06:47.804Z,127.57
2023-02-16T18:09:23.825Z,115.82
2023-02-16T18:11:53.921Z,128.90
2023-02-16T18:14:23.629Z,115.65
2023-02-16T18:16:55.314Z,120.47
2023-02-16T18:19:25.016Z,125.35
2023-02-16T18:21:54.838Z,121.85
2023-02-16T18:24:24.970Z,117.63
2023-02-16T18:26:55.012Z,111.63
2023-02-16T18:29:24.974Z,109.95
2023-02-16T18:31:56.090Z,109.43
2023-02-16T18:34:26.420Z,98.75
2023-02-16T18:36:55.671Z,104.35
2023-02-16T18:39:25.538Z,93.70
2023-02-16T18:41:54.853Z,93.47
2023-02-16T18:44:24.844Z,89.82
2023-02-16T18:46:55.687Z,92.60
2023-02-16T18:49:25.549Z,95.38
2023-02-16T18:51:54.921Z,89.28
2023-02-16T18:54:24.552Z,92.97
2023-02-16T18:56:53.839Z,98.10
2023-02-16T18:59:23.478Z,81.97
2023-02-16T19:01:58.088Z,95.18
2023-02-16T19:04:28.779Z,91.25
2023-02-16T19:06:58.767Z,94.18
2023-02-16T19:09:28.551Z,88.78
2023-02-16T19:11:58.164Z,97.10
2023-02-16T19:14:27.825Z,92.20
2023-02-16T19:16:59.540Z,94.55
2023-02-16T19:19:31.005Z,92.82
2023-02-16T19:22:00.479Z,95.60
2023-02-16T19:24:31.254Z,96.45
2023-02-16T19:27:00.584Z,95.20
2023-02-16T19:29:30.242Z,95.97
2023-02-16T19:32:01.264Z,97.57
2023-02-16T19:34:31.279Z,92.82
2023-02-16T19:37:00.604Z,90.97
2023-02-16T19:39:30.233Z,92.55
2023-02-16T19:42:00.154Z,90.00
2023-02-16T19:44:30.446Z,102.03
2023-02-16T19:47:01.499Z,93.38
2023-02-16T19:49:31.261Z,93.25
2023-02-16T19:52:02.781Z,96.85
2023-02-16T19:54:35.076Z,99.25
2023-02-16T19:57:05.997Z,96.88
2023-02-16T19:59:35.784Z,94.10
2023-02-16T20:02:06.541Z,102.15
2023-02-16T20:04:36.169Z,106.78
2023-02-16T20:07:06.098Z,95.93
2023-02-16T20:09:36.972Z,98.47
2023-02-16T20:12:06.961Z,92.50
2023-02-16T20:14:37.057Z,104.63
2023-02-16T20:17:07.762Z,104.13
2023-02-16T20:19:37.394Z,109.65
2023-02-16T20:22:06.807Z,105.10
2023-02-16T20:24:36.816Z,112.95
2023-02-16T20:27:06.109Z,116.55
2023-02-16T20:29:35.728Z,102.25
2023-02-16T20:32:07.155Z,105.90
2023-02-16T20:34:36.807Z,100.18
2023-02-16T20:37:06.311Z,102.35
2023-02-16T20:39:36.262Z,97.85
2023-02-16T20:42:05.958Z,101.65
2023-02-16T20:44:35.607Z,106.18
2023-02-16T20:47:08.347Z,109.03
2023-02-16T20:49:38.038Z,92.38
2023-02-16T20:52:09.696Z,95.57
2023-02-16T20:54:39.539Z,96.10
2023-02-16T20:57:24.762Z,100.53
2023-02-16T20:59:56.197Z,94.53
2023-02-16T21:02:26.982Z,100.63
2023-02-16T21:04:56.939Z,100.13
2023-02-16T21:07:26.184Z,100.88
2023-02-16T21:09:56.143Z,99.10
2023-02-16T21:12:25.397Z,96.30
2023-02-16T21:14:55.152Z,99.15
2023-02-16T21:17:25.928Z,100.47
2023-02-16T21:19:56.151Z,95.20
2023-02-16T21:22:25.886Z,94.03
2023-02-16T21:24:55.468Z,90.93
2023-02-16T21:27:24.846Z,99.22
2023-02-16T21:29:54.639Z,94.78
2023-02-16T21:32:24.056Z,86.70
2023-02-16T21:34:55.622Z,95.63
2023-02-16T21:37:24.922Z,95.32
2023-02-16T21:40:11.692Z,97.72
2023-02-16T21:42:40.964Z,94.40
2023-02-16T21:45:14.154Z,93.20
2023-02-16T21:48:02.964Z,96.53
2023-02-16T21:50:37.726Z,101.32
2023-02-16T21:53:07.627Z,97.30
2023-02-16T21:55:56.244Z,102.00
2023-02-16T21:58:27.054Z,94.65
2023-02-16T22:00:57.107Z,100.90
2023-02-16T22:03:26.345Z,95.95
2023-02-16T22:05:57.428Z,95.82
2023-02-16T22:08:26.669Z,96.82
2023-02-16T22:10:56.688Z,92.97
2023-02-16T22:13:26.053Z,97.72
2023-02-16T22:15:55.687Z,91.45
2023-02-16T22:18:25.137Z,101.28
2023-02-16T22:20:56.917Z,96.70
2023-02-16T22:25:55.586Z,94.30
2023-02-16T22:28:25.371Z,93.95
2023-02-16T22:30:55.054Z,104.80
2023-02-16T22:33:24.347Z,100.72
2023-02-16T22:35:53.968Z,99.22
2023-02-16T22:38:24.759Z,103.45
2023-02-16T22:40:54.515Z,101.45
2023-02-16T22:43:23.765Z,100.72
2023-02-16T22:45:53.399Z,103.90
2023-02-16T22:48:22.734Z,96.63
2023-02-16T22:50:59.542Z,90.80
2023-02-16T22:53:31.215Z,102.30
2023-02-16T22:56:01.000Z,100.07
2023-02-16T22:58:30.955Z,104.28
2023-02-16T23:01:01.008Z,108.65
2023-02-16T23:03:31.424Z,103.70
2023-02-16T23:06:01.315Z,112.35
2023-02-16T23:08:32.096Z,101.68
2023-02-16T23:11:05.605Z,95.70
2023-02-16T23:13:35.937Z,94.32
2023-02-16T23:16:07.498Z,92.93
2023-02-16T23:18:37.299Z,99.90
2023-02-16T23:21:08.472Z,101.40
2023-02-16T23:23:39.317Z,95.80
2023-02-16T23:26:10.020Z,93.80
2023-02-16T23:28:41.289Z,97.88
2023-02-16T23:31:12.912Z,105.85
2023-02-16T23:33:42.424Z,94.22
2023-02-16T23:36:12.547Z,116.23
2023-02-16T23:38:43.814Z,108.05
2023-02-16T23:41:18.343Z,100.10
2023-02-16T23:43:47.634Z,98.63
2023-02-16T23:46:17.767Z,112.22
2023-02-16T23:48:47.099Z,97.20
2023-02-16T23:51:17.157Z,102.88
2023-02-16T23:53:47.883Z,104.78
2023-02-16T23:56:20.300Z,108.72
2023-02-16T23:58:50.242Z,98.82
